Aérodrome :
LOGIN :

S'inscrire | Disclaimer

   EN    FR    IT 

 










Légende :    VFR   VFR Marginal   IFR   IFR Intensif   IFR Très Intensif
Visi : 
Plafond : 
>= 8 km
>= 3000ft
5 à 8 km
1000 à 3000 ft
1500m à 5 km
500 à 1000 ft
800 à 1500m
200 à 500 ft
< 800m
< 200 ft
Symboles :   Orages  Brouillard  Fortes neiges  Fortes précipitations  Vent > 20 kt
SIGMETs :   Divers  Orages  Givrage  Turbulence  Onde Orograph.  Cendres Volcan.







- Altitude de l'aérodrome : 287 ft
- Voir les cartes d'approche


LFRL - Lanveoc Poulmic

DERNIER METAR :
  • 230230Z AUTO 06003KT CAVOK 08/07 Q1037

METARs EXPIRÉS :
  • 230200Z AUTO 05004KT CAVOK 08/07 Q1037
  • 230130Z AUTO 05004KT CAVOK 08/07 Q1037
  • 230100Z AUTO 05003KT CAVOK 08/07 Q1037
  • 230030Z AUTO 03005KT CAVOK 08/07 Q1037
  • 230000Z AUTO 04005KT CAVOK 09/07 Q1037

TAF TAF LFRL
Valide du 22 à 12h jusqu'au 23 à 12h UTC


221100Z 2212/2312 03015G25KT 9999 BKN015
BECMG 2214/2216 CAVOK
BECMG 2218/2220 03008KT
Pas de NOTAMs connus pour ce terrain.



MET'MAP, la Météo Aéronautique d'un coup d'oeil ! - Copyright ORBIFLY Décembre 2007 - Disclaimer

ORBIFLY MET'MAP TEAM :

Programmation & Développement : Alexandra Zaïnal
Conception & Développement : Baudouin d'Aumeries
Co-Programmation & Développement : Marc-Olivier Méhu
Soutien technique & logistique : Manuel Goepfert

Contact : metmap@orbifly.com




SOURCES & CREDITS :

   NOAA